createdAt,value
2023-08-13T00:01:15.117Z,10.65
2023-08-13T00:03:42.913Z,11.18
2023-08-13T00:06:10.586Z,11.45
2023-08-13T00:08:38.165Z,12.57
2023-08-13T00:11:13.238Z,10.32
2023-08-13T00:13:41.824Z,10.88
2023-08-13T00:16:11.771Z,10.68
2023-08-13T00:18:39.570Z,12.60
2023-08-13T00:21:07.412Z,12.05
2023-08-13T00:23:35.381Z,10.60
2023-08-13T00:26:03.747Z,11.65
2023-08-13T00:28:31.966Z,11.07
2023-08-13T00:31:00.825Z,11.60
2023-08-13T00:33:28.595Z,11.82
2023-08-13T00:35:56.497Z,11.50
2023-08-13T00:38:24.166Z,11.30
2023-08-13T00:40:51.908Z,11.32
2023-08-13T00:43:19.477Z,10.73
2023-08-13T00:45:47.439Z,10.80
2023-08-13T00:48:15.200Z,11.57
2023-08-13T00:50:45.235Z,12.63
2023-08-13T00:53:13.370Z,11.55
2023-08-13T00:55:41.227Z,11.85
2023-08-13T00:58:08.939Z,11.15
2023-08-13T01:00:36.576Z,11.30
2023-08-13T01:03:04.367Z,11.30
2023-08-13T01:05:42.955Z,12.95
2023-08-13T01:08:23.804Z,11.27
2023-08-13T01:11:02.936Z,12.10
2023-08-13T01:13:43.789Z,11.57
2023-08-13T01:16:12.977Z,12.60
2023-08-13T01:18:41.839Z,12.88
2023-08-13T01:21:09.455Z,12.38
2023-08-13T01:23:37.199Z,12.75
2023-08-13T01:26:20.305Z,11.70
2023-08-13T01:29:00.764Z,12.18
2023-08-13T01:31:36.805Z,12.30
2023-08-13T01:34:05.531Z,13.18
2023-08-13T01:36:34.308Z,12.43
2023-08-13T01:39:02.661Z,12.10
2023-08-13T01:41:46.235Z,11.75
2023-08-13T01:44:17.071Z,12.68
2023-08-13T01:46:45.179Z,12.70
2023-08-13T01:49:13.155Z,13.20
2023-08-13T01:51:41.179Z,13.07
2023-08-13T01:54:09.044Z,12.60
2023-08-13T01:56:38.716Z,13.18
2023-08-13T01:59:06.693Z,12.98
2023-08-13T02:01:34.780Z,12.85
2023-08-13T02:04:04.253Z,12.75
2023-08-13T02:06:38.180Z,12.85
2023-08-13T02:09:08.157Z,12.80
2023-08-13T02:11:43.838Z,12.60
2023-08-13T02:14:24.249Z,11.93
2023-08-13T02:16:53.572Z,12.07
2023-08-13T02:19:21.576Z,13.38
2023-08-13T02:21:49.368Z,11.73
2023-08-13T02:24:19.276Z,13.65
2023-08-13T02:26:46.969Z,13.00
2023-08-13T02:29:14.599Z,12.93
2023-08-13T02:31:42.333Z,11.82
2023-08-13T02:34:09.996Z,12.50
2023-08-13T02:36:38.230Z,12.20
2023-08-13T02:39:05.778Z,12.00
2023-08-13T02:41:33.353Z,12.75
2023-08-13T02:44:18.741Z,12.38
2023-08-13T02:47:36.557Z,13.32
2023-08-13T02:50:07.946Z,12.57
2023-08-13T02:53:11.364Z,12.38
2023-08-13T02:56:45.150Z,12.05
2023-08-13T03:00:46.929Z,11.57
2023-08-13T03:02:51.460Z,11.70
2023-08-13T03:05:19.253Z,12.27
2023-08-13T03:07:47.143Z,11.98
2023-08-13T03:10:14.691Z,12.25
2023-08-13T03:12:42.464Z,11.82
2023-08-13T03:15:10.250Z,11.10
2023-08-13T03:17:39.012Z,11.70
2023-08-13T03:20:07.221Z,12.00
2023-08-13T03:22:35.041Z,11.80
2023-08-13T03:25:03.811Z,11.30
2023-08-13T03:27:31.774Z,11.32
2023-08-13T03:29:59.309Z,12.73
2023-08-13T03:32:27.409Z,12.35
2023-08-13T03:34:55.122Z,11.30
2023-08-13T03:37:22.877Z,11.48
2023-08-13T03:39:50.920Z,12.70
2023-08-13T03:42:18.582Z,11.63
2023-08-13T03:44:46.296Z,12.48
2023-08-13T03:47:19.844Z,11.80
2023-08-13T03:49:48.921Z,11.85
2023-08-13T03:52:16.852Z,12.20
2023-08-13T03:54:44.804Z,11.82
2023-08-13T03:57:12.395Z,11.88
2023-08-13T03:59:40.247Z,12.90
2023-08-13T04:02:09.519Z,12.45
2023-08-13T04:04:37.302Z,11.82
2023-08-13T04:07:10.260Z,12.25
2023-08-13T04:09:38.710Z,14.57
2023-08-13T04:12:07.341Z,13.32
2023-08-13T04:40:04.091Z,13.77
2023-08-13T04:42:34.306Z,13.75
2023-08-13T04:45:02.207Z,12.73
2023-08-13T04:47:31.463Z,13.75
2023-08-13T04:49:59.167Z,13.73
2023-08-13T04:52:26.826Z,13.23
2023-08-13T04:54:54.778Z,13.32
2023-08-13T04:57:24.372Z,12.20
2023-08-13T04:59:52.984Z,12.25
2023-08-13T05:02:22.349Z,11.27
2023-08-13T05:04:49.874Z,11.98
2023-08-13T05:07:18.141Z,10.75
2023-08-13T05:09:45.979Z,10.77
2023-08-13T05:12:14.045Z,11.45
2023-08-13T05:14:42.005Z,10.52
2023-08-13T05:17:27.985Z,10.43
2023-08-13T05:19:55.752Z,10.23
2023-08-13T05:22:23.439Z,9.95
2023-08-13T05:24:51.088Z,9.05
2023-08-13T05:27:18.929Z,8.60
2023-08-13T05:29:46.726Z,9.63
2023-08-13T05:32:15.099Z,8.75
2023-08-13T05:34:43.041Z,9.88
2023-08-13T05:37:10.993Z,9.65
2023-08-13T05:39:39.758Z,8.05
2023-08-13T05:42:07.516Z,7.95
2023-08-13T05:44:35.255Z,7.32
2023-08-13T05:47:03.465Z,7.10
2023-08-13T05:49:32.463Z,7.13
2023-08-13T05:52:00.413Z,7.00
2023-08-13T05:54:28.082Z,7.50
2023-08-13T05:56:55.691Z,7.72
2023-08-13T05:59:23.665Z,7.40
2023-08-13T06:01:51.481Z,7.45
2023-08-13T06:04:19.253Z,7.10
2023-08-13T06:06:46.832Z,8.07
2023-08-13T06:09:14.457Z,5.65
2023-08-13T06:11:42.038Z,6.65
2023-08-13T06:14:09.427Z,5.10
2023-08-13T06:16:37.058Z,5.43
2023-08-13T06:19:04.692Z,6.03
2023-08-13T06:21:32.275Z,5.70
2023-08-13T06:23:59.973Z,5.45
2023-08-13T06:26:27.551Z,5.75
2023-08-13T06:28:55.030Z,6.00
2023-08-13T06:31:36.493Z,6.22
2023-08-13T06:34:09.431Z,6.40
2023-08-13T06:36:36.837Z,6.00
2023-08-13T06:39:05.052Z,5.47
2023-08-13T06:41:32.679Z,5.20
2023-08-13T06:44:04.633Z,5.35
2023-08-13T06:46:32.333Z,5.47
2023-08-13T06:49:00.068Z,4.40
2023-08-13T06:51:27.727Z,4.43
2023-08-13T06:53:55.345Z,4.72
2023-08-13T06:56:22.996Z,4.05
2023-08-13T06:58:50.614Z,4.00
2023-08-13T07:01:18.117Z,4.07
2023-08-13T07:03:45.895Z,4.60
2023-08-13T07:06:13.459Z,4.60
2023-08-13T07:08:41.146Z,4.38
2023-08-13T07:11:09.045Z,3.80
2023-08-13T07:13:45.905Z,3.78
2023-08-13T07:16:15.158Z,4.15
2023-08-13T07:18:43.574Z,3.10
2023-08-13T07:21:15.374Z,3.20
2023-08-13T07:23:43.678Z,3.30
2023-08-13T07:26:11.297Z,3.03
2023-08-13T07:28:41.704Z,2.90
2023-08-13T07:31:11.114Z,3.95
2023-08-13T07:34:04.433Z,3.08
2023-08-13T07:36:32.521Z,3.22
2023-08-13T07:40:18.237Z,3.47
2023-08-13T07:42:50.115Z,3.10
2023-08-13T07:45:18.049Z,3.25
2023-08-13T07:47:45.845Z,3.50
2023-08-13T07:50:15.563Z,3.50
2023-08-13T07:52:43.769Z,3.65
2023-08-13T07:55:11.789Z,3.47
2023-08-13T07:57:39.321Z,3.30
2023-08-13T08:00:09.393Z,3.13
2023-08-13T08:02:41.159Z,2.92
2023-08-13T08:05:10.387Z,3.45
2023-08-13T08:07:38.779Z,3.28
2023-08-13T08:10:07.766Z,3.13
2023-08-13T08:12:35.561Z,3.13
2023-08-13T08:15:04.470Z,3.55
2023-08-13T08:17:32.873Z,3.53
2023-08-13T08:20:01.526Z,3.45
2023-08-13T08:22:33.867Z,3.88
2023-08-13T08:25:01.911Z,3.00
2023-08-13T08:27:31.081Z,3.35
2023-08-13T11:46:21.747Z,3.58
2023-08-13T11:48:55.940Z,3.47
2023-08-13T15:50:19.233Z,5.72
2023-08-13T15:52:52.239Z,5.88
2023-08-13T15:55:22.805Z,5.95
2023-08-13T15:57:53.431Z,6.03
2023-08-13T16:00:33.134Z,6.10
2023-08-13T16:03:10.605Z,5.90
2023-08-13T16:05:57.050Z,6.63
2023-08-13T16:08:31.829Z,6.18
2023-08-13T16:11:25.986Z,6.72
2023-08-13T16:14:03.039Z,6.18
2023-08-13T16:16:31.396Z,6.95
2023-08-13T16:19:00.012Z,6.78
2023-08-13T16:21:27.952Z,6.68
2023-08-13T16:24:08.752Z,7.50
2023-08-13T16:26:37.044Z,7.68
2023-08-13T16:29:06.310Z,7.43
2023-08-13T16:31:34.186Z,7.18
2023-08-13T16:34:04.482Z,7.15
2023-08-13T16:36:34.485Z,6.97
2023-08-13T16:39:02.326Z,7.28
2023-08-13T16:41:30.197Z,7.18
2023-08-13T16:44:00.589Z,6.43
2023-08-13T16:46:28.998Z,6.65
2023-08-13T16:48:56.779Z,6.68
2023-08-13T16:51:25.580Z,6.53
2023-08-13T16:53:53.652Z,6.85
2023-08-13T16:56:23.974Z,6.45
2023-08-13T16:58:52.878Z,7.88
2023-08-13T17:01:20.932Z,6.50
2023-08-13T17:03:48.703Z,8.00
2023-08-13T17:06:17.030Z,6.90
2023-08-13T17:08:46.292Z,6.53
2023-08-13T17:11:16.114Z,6.28
2023-08-13T17:13:44.902Z,6.53
2023-08-13T17:16:12.799Z,6.72
2023-08-13T17:18:45.510Z,6.35
2023-08-13T17:21:13.412Z,6.70
2023-08-13T17:23:46.305Z,7.30
2023-08-13T17:26:13.995Z,7.03
2023-08-13T19:50:03.749Z,2.83
2023-08-13T19:52:33.443Z,2.70
2023-08-13T19:55:01.183Z,2.72
2023-08-13T19:57:39.436Z,2.60
2023-08-13T20:00:11.264Z,2.50
